createdAt,value
2023-02-19T00:03:22.542Z,1.10
2023-02-19T00:08:24.251Z,0.97
2023-02-19T00:13:25.754Z,0.70
2023-02-19T00:18:27.399Z,0.57
2023-02-19T00:23:28.973Z,0.70
2023-02-19T00:28:30.637Z,0.70
2023-02-19T00:33:32.382Z,0.93
2023-02-19T00:38:37.298Z,0.80
2023-02-19T00:43:38.958Z,0.67
2023-02-19T00:48:40.527Z,0.80
2023-02-19T00:53:42.629Z,0.80
2023-02-19T00:58:44.390Z,0.70
2023-02-19T01:03:46.408Z,1.00
2023-02-19T01:08:48.717Z,0.90
2023-02-19T01:13:50.947Z,1.53
2023-02-19T01:18:52.684Z,1.53
2023-02-19T01:23:55.377Z,1.90
2023-02-19T01:28:58.251Z,1.93
2023-02-19T01:34:02.268Z,2.10
2023-02-19T01:39:06.091Z,2.03
2023-02-19T01:44:18.217Z,2.00
2023-02-19T01:49:41.928Z,2.20
2023-02-19T01:54:44.378Z,2.17
2023-02-19T01:59:47.147Z,2.50
2023-02-19T02:04:48.716Z,2.30
2023-02-19T02:10:09.399Z,2.13
2023-02-19T02:15:11.694Z,2.50
2023-02-19T02:20:16.006Z,2.13
2023-02-19T02:25:36.272Z,1.60
2023-02-19T02:30:47.411Z,1.50
2023-02-19T02:35:56.192Z,1.30
2023-02-19T02:40:58.074Z,1.40
2023-02-19T02:45:59.978Z,1.40
2023-02-19T02:51:30.687Z,1.57
2023-02-19T02:56:37.811Z,1.67
2023-02-19T03:02:03.419Z,1.67
2023-02-19T03:07:08.052Z,1.97
2023-02-19T03:12:33.928Z,1.60
2023-02-19T03:17:58.520Z,2.27
2023-02-19T03:23:00.495Z,1.87
2023-02-19T03:28:06.874Z,2.53
2023-02-19T03:33:15.737Z,2.50
2023-02-19T03:38:39.746Z,2.80
2023-02-19T03:43:48.966Z,2.80
2023-02-19T03:48:59.136Z,3.27
2023-02-19T03:54:30.009Z,3.20
2023-02-19T03:59:46.395Z,3.63
2023-02-19T04:04:55.362Z,3.77
2023-02-19T04:09:57.282Z,3.67
2023-02-19T04:15:05.031Z,4.37
2023-02-19T04:20:09.160Z,4.37
2023-02-19T04:25:11.006Z,4.23
2023-02-19T04:30:13.811Z,4.80
2023-02-19T04:35:15.394Z,4.83
2023-02-19T04:40:17.183Z,5.00
2023-02-19T04:45:18.788Z,4.60
2023-02-19T04:50:20.431Z,4.40
2023-02-19T04:55:22.107Z,4.03
2023-02-19T05:00:24.378Z,4.00
2023-02-19T05:05:27.055Z,4.43
2023-02-19T05:10:28.654Z,4.50
2023-02-19T05:15:30.464Z,3.83
2023-02-19T05:20:32.119Z,4.03
2023-02-19T05:25:33.755Z,4.20
2023-02-19T05:30:35.509Z,4.57
2023-02-19T05:35:44.035Z,4.33
2023-02-19T05:40:45.865Z,4.67
2023-02-19T05:45:47.544Z,5.13
2023-02-19T05:50:49.271Z,4.83
2023-02-19T05:55:50.876Z,5.40
2023-02-19T06:00:52.679Z,5.60
2023-02-19T06:05:54.324Z,5.00
2023-02-19T06:10:55.841Z,5.20
2023-02-19T06:15:57.499Z,6.40
2023-02-19T06:21:04.507Z,5.80
2023-02-19T06:26:32.100Z,6.13
2023-02-19T06:31:33.738Z,6.20
2023-02-19T06:36:35.362Z,5.80
2023-02-19T06:41:36.895Z,5.93
2023-02-19T06:46:38.597Z,5.70
2023-02-19T06:51:40.144Z,5.87
2023-02-19T06:56:43.957Z,6.40
2023-02-19T07:01:46.626Z,6.50
2023-02-19T07:06:48.258Z,6.47
2023-02-19T07:11:50.987Z,6.47
2023-02-19T07:16:52.661Z,5.80
2023-02-19T07:21:54.362Z,5.23
2023-02-19T07:26:56.020Z,5.60
2023-02-19T07:31:57.658Z,5.77
2023-02-19T07:36:59.364Z,5.63
2023-02-19T07:42:00.901Z,4.80
2023-02-19T07:47:02.475Z,5.30
2023-02-19T07:52:04.353Z,5.73
2023-02-19T07:57:05.970Z,6.03
2023-02-19T08:02:37.583Z,5.77
2023-02-19T08:07:39.344Z,6.23
2023-02-19T08:12:59.386Z,6.00
2023-02-19T08:18:01.222Z,5.97
2023-02-19T08:23:05.571Z,6.07
2023-02-19T08:28:08.597Z,6.00
2023-02-19T08:33:11.818Z,5.87
2023-02-19T08:38:14.181Z,5.43
2023-02-19T08:43:16.959Z,5.43
2023-02-19T08:48:18.571Z,6.00
2023-02-19T08:53:20.094Z,5.83
2023-02-19T08:58:22.181Z,5.20
2023-02-19T09:03:23.756Z,5.63
2023-02-19T09:08:25.495Z,6.13
2023-02-19T09:13:27.893Z,5.73
2023-02-19T09:18:29.468Z,5.13
2023-02-19T09:23:33.425Z,5.17
2023-02-19T09:28:35.169Z,4.63
2023-02-19T09:33:36.954Z,5.03
2023-02-19T09:38:39.930Z,4.57
2023-02-19T09:43:42.558Z,4.83
2023-02-19T09:48:44.116Z,4.30
2023-02-19T09:53:49.555Z,4.47
2023-02-19T09:58:53.500Z,4.00
2023-02-19T10:03:55.086Z,4.33
2023-02-19T10:09:11.825Z,4.47
2023-02-19T10:14:22.956Z,3.97
2023-02-19T10:19:24.575Z,4.20
2023-02-19T10:24:28.926Z,4.30
2023-02-19T10:29:30.491Z,5.20
2023-02-19T10:34:32.329Z,5.37
2023-02-19T10:39:46.215Z,6.00
2023-02-19T10:44:52.840Z,5.83
2023-02-19T10:49:57.805Z,5.80
2023-02-19T10:55:28.341Z,5.40
2023-02-19T11:00:30.830Z,5.00
2023-02-19T11:05:32.403Z,5.10
2023-02-19T11:10:40.262Z,4.20
2023-02-19T11:15:42.801Z,3.50
2023-02-19T11:20:50.275Z,3.87
2023-02-19T11:25:54.007Z,4.57
2023-02-19T11:30:55.866Z,4.40
2023-02-19T11:36:17.256Z,3.80
2023-02-19T11:41:53.659Z,4.43
2023-02-19T11:47:09.040Z,3.30
2023-02-19T11:52:30.039Z,3.40
2023-02-19T11:57:50.320Z,3.17
2023-02-19T12:03:10.675Z,2.80
2023-02-19T12:08:30.493Z,2.50
2023-02-19T12:13:56.928Z,2.43
2023-02-19T12:19:13.536Z,2.53
2023-02-19T12:24:22.333Z,3.40
2023-02-19T12:29:51.472Z,2.77
2023-02-19T12:35:18.222Z,2.50
2023-02-19T12:40:46.366Z,2.60
2023-02-19T12:46:11.420Z,2.53
2023-02-19T12:51:21.296Z,2.53
2023-02-19T12:56:57.299Z,3.00
2023-02-19T13:02:14.034Z,2.47
2023-02-19T13:07:46.689Z,2.70
2023-02-19T13:12:50.737Z,4.27
2023-02-19T13:17:55.044Z,2.77
2023-02-19T13:23:29.303Z,3.73
2023-02-19T13:28:52.642Z,2.90
2023-02-19T13:34:18.701Z,2.77
2023-02-19T13:39:21.197Z,3.10
2023-02-19T13:44:28.329Z,2.93
2023-02-19T13:49:31.490Z,2.83
2023-02-19T13:54:37.081Z,3.00
2023-02-19T13:59:40.403Z,3.00
2023-02-19T14:04:54.009Z,3.00
2023-02-19T14:09:55.535Z,3.53
2023-02-19T14:14:57.422Z,3.10
2023-02-19T14:20:04.362Z,3.27
2023-02-19T14:25:14.681Z,2.77
2023-02-19T14:30:16.382Z,3.30
2023-02-19T14:35:22.487Z,3.43
2023-02-19T14:40:28.400Z,3.30
2023-02-19T14:45:32.936Z,3.47
2023-02-19T14:50:36.162Z,3.67
2023-02-19T14:55:39.963Z,3.30
2023-02-19T15:00:42.201Z,3.10
2023-02-19T15:05:45.248Z,3.70
2023-02-19T15:10:46.966Z,3.60
2023-02-19T15:15:49.654Z,3.63
2023-02-19T15:20:58.250Z,3.53
2023-02-19T15:26:00.360Z,4.03
2023-02-19T15:31:03.204Z,4.33
2023-02-19T15:36:07.842Z,4.63
2023-02-19T15:41:20.061Z,4.77
2023-02-19T15:46:22.745Z,4.63
2023-02-19T15:51:32.264Z,4.60
2023-02-19T15:56:35.851Z,4.70
2023-02-19T16:01:38.170Z,4.53
2023-02-19T16:07:00.385Z,4.30
2023-02-19T16:12:03.868Z,4.80
2023-02-19T16:17:11.693Z,4.20
2023-02-19T16:22:17.134Z,4.20
2023-02-19T16:27:35.554Z,4.23
2023-02-19T16:32:37.159Z,3.90
2023-02-19T16:37:41.224Z,4.30
2023-02-19T16:42:49.756Z,4.30
2023-02-19T16:47:51.424Z,4.30
2023-02-19T16:53:01.156Z,4.10
2023-02-19T16:58:02.795Z,4.10
2023-02-19T17:03:09.161Z,4.13
2023-02-19T17:08:26.279Z,3.70
2023-02-19T17:13:29.234Z,3.90
2023-02-19T17:18:30.854Z,3.77
2023-02-19T17:23:32.475Z,4.00
2023-02-19T17:28:34.082Z,4.00
2023-02-19T17:33:37.399Z,4.50
2023-02-19T17:38:38.881Z,5.17
2023-02-19T17:43:40.482Z,4.73
2023-02-19T17:48:42.466Z,4.77
2023-02-19T17:53:46.368Z,5.40
2023-02-19T17:58:48.199Z,5.37
2023-02-19T18:03:50.333Z,4.80
2023-02-19T18:08:53.166Z,5.23
2023-02-19T18:13:54.862Z,5.63
2023-02-19T18:18:58.380Z,5.40
2023-02-19T18:24:01.055Z,5.10
2023-02-19T18:29:02.640Z,5.40
2023-02-19T18:34:05.202Z,4.77
2023-02-19T18:39:06.835Z,5.10
2023-02-19T18:44:08.425Z,4.77
2023-02-19T18:49:09.922Z,3.60
2023-02-19T18:54:11.456Z,4.17
2023-02-19T18:59:14.164Z,4.10
2023-02-19T19:04:15.723Z,3.40
2023-02-19T19:09:17.354Z,3.30
2023-02-19T19:14:18.898Z,3.10
2023-02-19T19:19:20.605Z,3.50
2023-02-19T19:24:23.254Z,3.70
2023-02-19T19:29:24.860Z,3.33
2023-02-19T19:34:26.623Z,3.30
2023-02-19T19:39:28.340Z,3.10
2023-02-19T19:44:29.834Z,3.93
2023-02-19T19:49:31.579Z,3.30
2023-02-19T19:54:33.108Z,3.73
2023-02-19T19:59:34.908Z,4.93
2023-02-19T20:04:36.449Z,3.73
2023-02-19T20:09:38.124Z,4.10
2023-02-19T20:14:39.694Z,3.67
2023-02-19T20:19:41.355Z,4.40
2023-02-19T20:24:43.124Z,3.67
2023-02-19T20:29:44.833Z,4.33
2023-02-19T20:34:47.513Z,4.40
2023-02-19T20:39:49.110Z,4.40
2023-02-19T20:44:50.805Z,4.40
2023-02-19T20:49:52.488Z,4.50
2023-02-19T20:54:56.878Z,4.23
2023-02-19T20:59:58.807Z,4.43
2023-02-19T21:05:00.795Z,4.57
2023-02-19T21:10:03.848Z,4.57
2023-02-19T21:15:05.808Z,4.13
2023-02-19T21:20:08.092Z,3.80
2023-02-19T21:25:10.022Z,4.03
2023-02-19T21:30:11.942Z,4.00
2023-02-19T21:35:14.481Z,4.17
2023-02-19T21:40:16.240Z,4.27
2023-02-19T21:45:18.153Z,3.77
2023-02-19T21:50:20.131Z,3.50
2023-02-19T21:55:21.669Z,3.90
2023-02-19T22:00:23.837Z,3.23
2023-02-19T22:05:26.670Z,3.40
2023-02-19T22:10:29.696Z,3.40
2023-02-19T22:15:31.347Z,3.27
2023-02-19T22:20:34.620Z,3.13
2023-02-19T22:25:36.193Z,3.40
2023-02-19T22:30:37.890Z,3.17
2023-02-19T22:35:39.859Z,3.33
2023-02-19T22:40:41.498Z,3.17
2023-02-19T22:45:43.278Z,3.27
2023-02-19T22:50:44.941Z,3.30
2023-02-19T22:55:46.485Z,3.63
2023-02-19T23:00:48.107Z,3.83
2023-02-19T23:05:49.693Z,3.60
2023-02-19T23:10:51.438Z,4.60
2023-02-19T23:15:53.345Z,4.63
2023-02-19T23:20:55.006Z,5.10
2023-02-19T23:25:56.809Z,5.77
2023-02-19T23:30:58.618Z,6.33
2023-02-19T23:36:00.237Z,5.33
2023-02-19T23:41:02.075Z,5.67
2023-02-19T23:46:04.220Z,6.27
2023-02-19T23:51:05.973Z,6.37
2023-02-19T23:56:07.885Z,7.00
